Main page
METAR-TAF:

METAR-TAF

Airports :

Tongatapu, Tonga

Fuaʻamotu International Airport

latitude: 21-14S, longitude: 175-09W, elevation: 38 m

Current weather observation

The report was made 53 minutes ago, at 11:00 UTC
Calm wind
Temperature 25°C
Humidity 94%
Pressure 1012 hPa
Visibility 10 km or more
Few clouds at a height of 1600 ft

METAR: NFTF 201100Z 00000KT 9999 FEW016 25/24 Q1012

Time: 01:53 (11:53 UTC)

Forecast

The report was made 30 minutes ago, at 11:23 UTC
Forecast valid from 20 at 12 UTC to 21 at 12 UTC
Wind 8 kt from the East/Northeast
Visibility 10 km or more
Few clouds at a height of 900 ft
Scattered clouds at a height of 1600 ft
Broken clouds at a height of 10000 ft
Probability 30% :
Temporary
from 21 at 00 UTC to 21 at 12 UTC
Visibility: 5000 m
Few clouds at a height of 800 ft
Few clouds at a height of 1500 ft, Cumulonimbus.
thunderstorm, rain

TAF: NFTF 201123Z 2012/2112 06008KT 9999 FEW009 SCT016 BKN100 PROB30 TEMPO 2100/2112 5000 TSRA FEW008 FEW015CB

Weather observations and forecasts of more than 4000 airports (METAR and TAF reports).

The available stations are represented by yellow and red dots on the map.

Hover mouse over dot to see the name of the station.

Then click to see weather observations and forecasts.

To change the map : click on the green buttons with a black cross to zoom in, on the green button with a dash to zoom out, or on the green arrows for adjacent maps.


METAR-TAF: